sensor_id;sensor_type;location;lat;lon;timestamp;temperature;humidity
21662;DHT22;10992;48.170;8.596;2022-09-09T00:01:27;13.10;99.90
21662;DHT22;10992;48.170;8.596;2022-09-09T00:04:10;13.10;99.90
21662;DHT22;10992;48.170;8.596;2022-09-09T00:07:03;12.90;99.90
21662;DHT22;10992;48.170;8.596;2022-09-09T00:10:20;12.80;99.90
21662;DHT22;10992;48.170;8.596;2022-09-09T00:12:32;12.80;99.90
21662;DHT22;10992;48.170;8.596;2022-09-09T00:15:11;12.70;99.90
21662;DHT22;10992;48.170;8.596;2022-09-09T00:21:07;12.60;99.90
21662;DHT22;10992;48.170;8.596;2022-09-09T00:23:38;12.50;99.90
21662;DHT22;10992;48.170;8.596;2022-09-09T00:28:43;12.40;99.90
21662;DHT22;10992;48.170;8.596;2022-09-09T00:31:23;12.50;99.90
21662;DHT22;10992;48.170;8.596;2022-09-09T00:33:53;12.50;99.90
21662;DHT22;10992;48.170;8.596;2022-09-09T00:36:24;12.50;99.90
21662;DHT22;10992;48.170;8.596;2022-09-09T00:38:56;12.50;99.90
21662;DHT22;10992;48.170;8.596;2022-09-09T00:41:35;12.50;99.90
21662;DHT22;10992;48.170;8.596;2022-09-09T00:44:31;12.50;99.90
21662;DHT22;10992;48.170;8.596;2022-09-09T00:57:38;12.40;99.90
21662;DHT22;10992;48.170;8.596;2022-09-09T01:00:35;12.40;99.90
21662;DHT22;10992;48.170;8.596;2022-09-09T01:03:14;12.40;99.90
21662;DHT22;10992;48.170;8.596;2022-09-09T01:11:24;12.30;99.90
21662;DHT22;10992;48.170;8.596;2022-09-09T01:14:29;12.30;99.90
21662;DHT22;10992;48.170;8.596;2022-09-09T01:17:04;12.40;99.90
21662;DHT22;10992;48.170;8.596;2022-09-09T01:19:45;12.40;99.90
21662;DHT22;10992;48.170;8.596;2022-09-09T01:23:04;12.50;99.90
21662;DHT22;10992;48.170;8.596;2022-09-09T01:28:27;12.60;99.90
21662;DHT22;10992;48.170;8.596;2022-09-09T01:31:00;12.60;99.90
21662;DHT22;10992;48.170;8.596;2022-09-09T01:33:35;12.70;99.90
21662;DHT22;10992;48.170;8.596;2022-09-09T01:38:35;12.80;99.90
21662;DHT22;10992;48.170;8.596;2022-09-09T01:41:03;12.90;99.90
21662;DHT22;10992;48.170;8.596;2022-09-09T01:43:42;12.90;99.90
21662;DHT22;10992;48.170;8.596;2022-09-09T01:46:10;13.00;99.90
21662;DHT22;10992;48.170;8.596;2022-09-09T01:48:40;13.10;99.90
21662;DHT22;10992;48.170;8.596;2022-09-09T01:51:09;13.10;99.90
21662;DHT22;10992;48.170;8.596;2022-09-09T01:53:39;13.20;99.90
21662;DHT22;10992;48.170;8.596;2022-09-09T01:56:25;13.20;99.90
21662;DHT22;10992;48.170;8.596;2022-09-09T02:03:57;13.20;99.90
21662;DHT22;10992;48.170;8.596;2022-09-09T02:09:10;13.20;99.90
21662;DHT22;10992;48.170;8.596;2022-09-09T02:11:40;13.20;99.90
21662;DHT22;10992;48.170;8.596;2022-09-09T02:14:23;13.10;99.90
21662;DHT22;10992;48.170;8.596;2022-09-09T02:16:56;13.20;99.90
21662;DHT22;10992;48.170;8.596;2022-09-09T02:19:44;13.20;99.90
21662;DHT22;10992;48.170;8.596;2022-09-09T02:22:22;13.20;99.90
21662;DHT22;10992;48.170;8.596;2022-09-09T02:24:51;13.20;99.90
21662;DHT22;10992;48.170;8.596;2022-09-09T02:27:24;13.20;99.90
21662;DHT22;10992;48.170;8.596;2022-09-09T02:29:53;13.20;99.90
21662;DHT22;10992;48.170;8.596;2022-09-09T02:32:34;13.20;99.90
21662;DHT22;10992;48.170;8.596;2022-09-09T02:35:14;13.20;99.90
21662;DHT22;10992;48.170;8.596;2022-09-09T02:37:44;13.20;99.90
21662;DHT22;10992;48.170;8.596;2022-09-09T02:40:15;13.20;99.90
21662;DHT22;10992;48.170;8.596;2022-09-09T02:42:48;13.20;99.90
21662;DHT22;10992;48.170;8.596;2022-09-09T02:45:19;13.10;99.90
21662;DHT22;10992;48.170;8.596;2022-09-09T02:48:00;13.00;99.90
21662;DHT22;10992;48.170;8.596;2022-09-09T02:50:34;12.90;99.90
21662;DHT22;10992;48.170;8.596;2022-09-09T02:53:18;12.90;99.90
21662;DHT22;10992;48.170;8.596;2022-09-09T02:55:52;12.70;99.90
21662;DHT22;10992;48.170;8.596;2022-09-09T02:58:21;12.60;99.90
21662;DHT22;10992;48.170;8.596;2022-09-09T03:00:56;12.50;99.90
21662;DHT22;10992;48.170;8.596;2022-09-09T03:03:25;12.40;99.90
21662;DHT22;10992;48.170;8.596;2022-09-09T03:05:53;12.20;99.90
21662;DHT22;10992;48.170;8.596;2022-09-09T03:08:20;12.10;99.90
21662;DHT22;10992;48.170;8.596;2022-09-09T03:10:47;11.90;99.90
21662;DHT22;10992;48.170;8.596;2022-09-09T03:13:15;11.80;99.90
21662;DHT22;10992;48.170;8.596;2022-09-09T03:15:43;11.60;99.90
21662;DHT22;10992;48.170;8.596;2022-09-09T03:18:14;11.50;99.90
21662;DHT22;10992;48.170;8.596;2022-09-09T03:20:41;11.50;99.90
21662;DHT22;10992;48.170;8.596;2022-09-09T03:23:10;11.40;99.90
21662;DHT22;10992;48.170;8.596;2022-09-09T03:25:51;11.30;99.90
21662;DHT22;10992;48.170;8.596;2022-09-09T03:28:25;11.40;99.90
21662;DHT22;10992;48.170;8.596;2022-09-09T03:31:00;11.40;99.90
21662;DHT22;10992;48.170;8.596;2022-09-09T03:33:30;11.40;99.90
21662;DHT22;10992;48.170;8.596;2022-09-09T03:35:58;11.40;99.90
21662;DHT22;10992;48.170;8.596;2022-09-09T03:38:25;11.40;99.90
21662;DHT22;10992;48.170;8.596;2022-09-09T03:40:55;11.20;99.90
21662;DHT22;10992;48.170;8.596;2022-09-09T03:43:25;11.10;99.90
21662;DHT22;10992;48.170;8.596;2022-09-09T03:45:53;11.10;99.90
21662;DHT22;10992;48.170;8.596;2022-09-09T03:48:25;11.10;99.90
21662;DHT22;10992;48.170;8.596;2022-09-09T03:50:55;11.20;99.90
21662;DHT22;10992;48.170;8.596;2022-09-09T03:53:28;11.10;99.90
21662;DHT22;10992;48.170;8.596;2022-09-09T03:55:57;11.00;99.90
21662;DHT22;10992;48.170;8.596;2022-09-09T03:58:27;11.00;99.90
21662;DHT22;10992;48.170;8.596;2022-09-09T04:01:03;11.00;99.90
21662;DHT22;10992;48.170;8.596;2022-09-09T04:03:30;11.10;99.90
21662;DHT22;10992;48.170;8.596;2022-09-09T04:05:59;11.20;99.90
21662;DHT22;10992;48.170;8.596;2022-09-09T04:08:28;11.30;99.90
21662;DHT22;10992;48.170;8.596;2022-09-09T04:10:55;11.40;99.90
21662;DHT22;10992;48.170;8.596;2022-09-09T04:13:25;11.30;99.90
21662;DHT22;10992;48.170;8.596;2022-09-09T04:15:58;11.40;99.90
21662;DHT22;10992;48.170;8.596;2022-09-09T04:18:26;11.40;99.90
21662;DHT22;10992;48.170;8.596;2022-09-09T04:20:54;11.50;99.90
21662;DHT22;10992;48.170;8.596;2022-09-09T04:23:27;11.50;99.90
21662;DHT22;10992;48.170;8.596;2022-09-09T04:25:58;11.50;99.90
21662;DHT22;10992;48.170;8.596;2022-09-09T04:28:29;11.60;99.90
21662;DHT22;10992;48.170;8.596;2022-09-09T04:30:57;11.60;99.90
21662;DHT22;10992;48.170;8.596;2022-09-09T04:33:24;11.60;99.90
21662;DHT22;10992;48.170;8.596;2022-09-09T04:35:54;11.70;99.90
21662;DHT22;10992;48.170;8.596;2022-09-09T04:38:24;11.70;99.90
21662;DHT22;10992;48.170;8.596;2022-09-09T04:40:51;11.70;99.90
21662;DHT22;10992;48.170;8.596;2022-09-09T04:43:21;11.80;99.90
21662;DHT22;10992;48.170;8.596;2022-09-09T04:45:50;11.80;99.90
21662;DHT22;10992;48.170;8.596;2022-09-09T04:48:24;11.80;99.90
21662;DHT22;10992;48.170;8.596;2022-09-09T04:51:05;11.80;99.90
21662;DHT22;10992;48.170;8.596;2022-09-09T04:53:33;11.70;99.90
21662;DHT22;10992;48.170;8.596;2022-09-09T04:56:11;11.70;99.90
21662;DHT22;10992;48.170;8.596;2022-09-09T04:58:42;11.70;99.90
21662;DHT22;10992;48.170;8.596;2022-09-09T05:01:16;11.60;99.90
21662;DHT22;10992;48.170;8.596;2022-09-09T05:03:48;11.60;99.90
21662;DHT22;10992;48.170;8.596;2022-09-09T05:06:20;11.70;99.90
21662;DHT22;10992;48.170;8.596;2022-09-09T05:08:50;11.70;99.90
21662;DHT22;10992;48.170;8.596;2022-09-09T05:11:23;11.70;99.90
21662;DHT22;10992;48.170;8.596;2022-09-09T05:13:53;11.80;99.90
21662;DHT22;10992;48.170;8.596;2022-09-09T05:16:20;12.00;99.90
21662;DHT22;10992;48.170;8.596;2022-09-09T05:18:48;12.10;99.90
21662;DHT22;10992;48.170;8.596;2022-09-09T05:21:17;12.30;99.90
21662;DHT22;10992;48.170;8.596;2022-09-09T05:23:45;12.50;99.90
21662;DHT22;10992;48.170;8.596;2022-09-09T05:26:14;12.70;99.90
21662;DHT22;10992;48.170;8.596;2022-09-09T05:28:46;12.80;99.90
21662;DHT22;10992;48.170;8.596;2022-09-09T05:31:15;12.80;99.90
21662;DHT22;10992;48.170;8.596;2022-09-09T05:33:46;12.70;99.90
21662;DHT22;10992;48.170;8.596;2022-09-09T05:36:24;12.70;99.90
21662;DHT22;10992;48.170;8.596;2022-09-09T05:38:54;12.70;99.90
21662;DHT22;10992;48.170;8.596;2022-09-09T05:41:21;12.60;99.90
21662;DHT22;10992;48.170;8.596;2022-09-09T05:43:52;12.60;99.90
21662;DHT22;10992;48.170;8.596;2022-09-09T05:46:21;12.60;99.90
21662;DHT22;10992;48.170;8.596;2022-09-09T05:48:51;12.60;99.90
21662;DHT22;10992;48.170;8.596;2022-09-09T05:51:25;12.60;99.90
21662;DHT22;10992;48.170;8.596;2022-09-09T05:53:55;12.70;99.90
21662;DHT22;10992;48.170;8.596;2022-09-09T05:56:28;12.70;99.90
21662;DHT22;10992;48.170;8.596;2022-09-09T05:58:57;12.70;99.90
21662;DHT22;10992;48.170;8.596;2022-09-09T06:01:32;12.60;99.90
21662;DHT22;10992;48.170;8.596;2022-09-09T06:04:01;12.60;99.90
21662;DHT22;10992;48.170;8.596;2022-09-09T06:06:34;12.60;99.90
21662;DHT22;10992;48.170;8.596;2022-09-09T06:09:07;12.60;99.90
21662;DHT22;10992;48.170;8.596;2022-09-09T06:11:41;12.70;99.90
21662;DHT22;10992;48.170;8.596;2022-09-09T06:14:09;12.70;99.90
21662;DHT22;10992;48.170;8.596;2022-09-09T06:16:37;12.80;99.90
21662;DHT22;10992;48.170;8.596;2022-09-09T06:19:11;12.90;99.90
21662;DHT22;10992;48.170;8.596;2022-09-09T06:21:39;12.90;99.90
21662;DHT22;10992;48.170;8.596;2022-09-09T06:24:08;13.00;99.90
21662;DHT22;10992;48.170;8.596;2022-09-09T06:26:38;13.10;99.90
21662;DHT22;10992;48.170;8.596;2022-09-09T06:29:10;13.10;99.90
21662;DHT22;10992;48.170;8.596;2022-09-09T06:31:38;13.20;99.90
21662;DHT22;10992;48.170;8.596;2022-09-09T06:34:12;13.30;99.90
21662;DHT22;10992;48.170;8.596;2022-09-09T06:36:43;13.40;99.90
21662;DHT22;10992;48.170;8.596;2022-09-09T06:39:12;13.40;99.90
21662;DHT22;10992;48.170;8.596;2022-09-09T06:41:41;13.40;99.90
21662;DHT22;10992;48.170;8.596;2022-09-09T06:44:29;13.60;99.90
21662;DHT22;10992;48.170;8.596;2022-09-09T06:47:02;13.70;99.90
21662;DHT22;10992;48.170;8.596;2022-09-09T06:49:30;13.70;99.90
21662;DHT22;10992;48.170;8.596;2022-09-09T06:51:57;13.80;99.90
21662;DHT22;10992;48.170;8.596;2022-09-09T06:54:24;13.80;99.90
21662;DHT22;10992;48.170;8.596;2022-09-09T06:56:52;13.80;99.90
21662;DHT22;10992;48.170;8.596;2022-09-09T06:59:22;13.70;99.90
21662;DHT22;10992;48.170;8.596;2022-09-09T07:01:52;13.60;99.90
21662;DHT22;10992;48.170;8.596;2022-09-09T07:04:22;13.60;99.90
21662;DHT22;10992;48.170;8.596;2022-09-09T07:06:50;13.50;99.90
21662;DHT22;10992;48.170;8.596;2022-09-09T07:09:24;13.40;99.90
21662;DHT22;10992;48.170;8.596;2022-09-09T07:11:53;13.30;99.90
21662;DHT22;10992;48.170;8.596;2022-09-09T07:14:22;13.30;99.90
21662;DHT22;10992;48.170;8.596;2022-09-09T07:16:56;13.20;99.90
21662;DHT22;10992;48.170;8.596;2022-09-09T07:19:27;13.20;99.90
21662;DHT22;10992;48.170;8.596;2022-09-09T07:21:55;13.20;99.90
21662;DHT22;10992;48.170;8.596;2022-09-09T07:24:23;13.20;99.90
21662;DHT22;10992;48.170;8.596;2022-09-09T07:26:51;13.10;99.90
21662;DHT22;10992;48.170;8.596;2022-09-09T07:29:19;13.20;99.90
21662;DHT22;10992;48.170;8.596;2022-09-09T07:31:47;13.10;99.90
21662;DHT22;10992;48.170;8.596;2022-09-09T07:34:19;13.20;99.90
21662;DHT22;10992;48.170;8.596;2022-09-09T07:36:46;13.20;99.90
21662;DHT22;10992;48.170;8.596;2022-09-09T07:39:14;13.20;99.90
21662;DHT22;10992;48.170;8.596;2022-09-09T07:41:47;13.30;99.90
21662;DHT22;10992;48.170;8.596;2022-09-09T07:44:20;13.30;99.90
21662;DHT22;10992;48.170;8.596;2022-09-09T07:46:58;13.40;99.90
21662;DHT22;10992;48.170;8.596;2022-09-09T07:49:31;13.40;99.90
21662;DHT22;10992;48.170;8.596;2022-09-09T07:52:00;13.60;99.90
21662;DHT22;10992;48.170;8.596;2022-09-09T07:54:28;13.60;99.90
21662;DHT22;10992;48.170;8.596;2022-09-09T07:56:57;13.60;99.90
21662;DHT22;10992;48.170;8.596;2022-09-09T07:59:28;13.60;99.90
21662;DHT22;10992;48.170;8.596;2022-09-09T08:01:57;13.80;99.90
21662;DHT22;10992;48.170;8.596;2022-09-09T08:04:28;14.00;99.90
21662;DHT22;10992;48.170;8.596;2022-09-09T08:07:00;14.50;99.90
21662;DHT22;10992;48.170;8.596;2022-09-09T08:09:29;14.80;99.90
21662;DHT22;10992;48.170;8.596;2022-09-09T08:12:25;15.90;99.90
21662;DHT22;10992;48.170;8.596;2022-09-09T08:14:52;17.50;99.90
21662;DHT22;10992;48.170;8.596;2022-09-09T08:17:23;18.50;99.90
21662;DHT22;10992;48.170;8.596;2022-09-09T08:19:50;19.10;99.90
21662;DHT22;10992;48.170;8.596;2022-09-09T08:22:22;19.80;99.90
21662;DHT22;10992;48.170;8.596;2022-09-09T08:24:49;20.70;99.90
21662;DHT22;10992;48.170;8.596;2022-09-09T08:27:17;21.80;99.90
21662;DHT22;10992;48.170;8.596;2022-09-09T08:29:44;21.40;99.90
21662;DHT22;10992;48.170;8.596;2022-09-09T08:32:11;21.10;99.90
21662;DHT22;10992;48.170;8.596;2022-09-09T08:34:39;21.30;99.90
21662;DHT22;10992;48.170;8.596;2022-09-09T08:37:16;19.70;99.90
21662;DHT22;10992;48.170;8.596;2022-09-09T08:39:43;18.30;99.90
21662;DHT22;10992;48.170;8.596;2022-09-09T08:42:44;17.50;99.90
21662;DHT22;10992;48.170;8.596;2022-09-09T08:45:28;17.20;99.90
21662;DHT22;10992;48.170;8.596;2022-09-09T08:48:21;16.80;99.90
21662;DHT22;10992;48.170;8.596;2022-09-09T08:50:53;16.60;99.90
21662;DHT22;10992;48.170;8.596;2022-09-09T08:53:28;17.30;99.90
21662;DHT22;10992;48.170;8.596;2022-09-09T08:56:04;17.70;99.90
21662;DHT22;10992;48.170;8.596;2022-09-09T08:58:56;18.40;99.90
21662;DHT22;10992;48.170;8.596;2022-09-09T09:01:50;18.50;99.90
21662;DHT22;10992;48.170;8.596;2022-09-09T09:04:50;17.90;99.90
21662;DHT22;10992;48.170;8.596;2022-09-09T09:13:15;16.50;99.90
21662;DHT22;10992;48.170;8.596;2022-09-09T09:15:49;16.20;99.90
21662;DHT22;10992;48.170;8.596;2022-09-09T09:18:17;15.90;99.90
21662;DHT22;10992;48.170;8.596;2022-09-09T09:20:54;15.90;99.90
21662;DHT22;10992;48.170;8.596;2022-09-09T09:23:25;16.00;99.90
21662;DHT22;10992;48.170;8.596;2022-09-09T09:26:05;16.50;99.90
21662;DHT22;10992;48.170;8.596;2022-09-09T09:28:34;17.40;99.90
21662;DHT22;10992;48.170;8.596;2022-09-09T09:31:11;17.80;99.90
21662;DHT22;10992;48.170;8.596;2022-09-09T09:36:08;17.40;99.90
21662;DHT22;10992;48.170;8.596;2022-09-09T09:38:37;17.50;99.90
21662;DHT22;10992;48.170;8.596;2022-09-09T09:41:34;17.80;99.90
21662;DHT22;10992;48.170;8.596;2022-09-09T09:44:04;18.40;99.90
21662;DHT22;10992;48.170;8.596;2022-09-09T09:46:31;19.40;99.90
21662;DHT22;10992;48.170;8.596;2022-09-09T09:49:09;20.20;99.90
21662;DHT22;10992;48.170;8.596;2022-09-09T09:51:38;20.50;99.90
21662;DHT22;10992;48.170;8.596;2022-09-09T09:54:23;21.20;99.90
21662;DHT22;10992;48.170;8.596;2022-09-09T09:56:55;21.50;99.90
21662;DHT22;10992;48.170;8.596;2022-09-09T09:59:34;21.40;99.90
21662;DHT22;10992;48.170;8.596;2022-09-09T10:02:15;21.10;99.90
21662;DHT22;10992;48.170;8.596;2022-09-09T10:04:43;21.20;99.90
21662;DHT22;10992;48.170;8.596;2022-09-09T10:07:18;21.10;99.90
21662;DHT22;10992;48.170;8.596;2022-09-09T10:09:46;20.60;99.90
21662;DHT22;10992;48.170;8.596;2022-09-09T10:42:46;21.80;99.90
21662;DHT22;10992;48.170;8.596;2022-09-09T10:45:26;21.90;99.90
21662;DHT22;10992;48.170;8.596;2022-09-09T10:53:53;21.90;99.90
21662;DHT22;10992;48.170;8.596;2022-09-09T10:56:24;21.90;99.90
21662;DHT22;10992;48.170;8.596;2022-09-09T10:59:00;21.90;99.90
21662;DHT22;10992;48.170;8.596;2022-09-09T11:01:37;21.50;99.90
21662;DHT22;10992;48.170;8.596;2022-09-09T11:04:31;21.40;99.90
21662;DHT22;10992;48.170;8.596;2022-09-09T11:07:05;21.80;99.90
21662;DHT22;10992;48.170;8.596;2022-09-09T11:09:42;22.00;99.90
21662;DHT22;10992;48.170;8.596;2022-09-09T11:12:17;22.00;99.90
21662;DHT22;10992;48.170;8.596;2022-09-09T11:14:46;21.90;99.90
21662;DHT22;10992;48.170;8.596;2022-09-09T11:17:33;22.40;99.90
21662;DHT22;10992;48.170;8.596;2022-09-09T11:20:05;22.40;99.90
21662;DHT22;10992;48.170;8.596;2022-09-09T11:22:42;22.30;99.90
21662;DHT22;10992;48.170;8.596;2022-09-09T11:25:38;22.80;99.90
21662;DHT22;10992;48.170;8.596;2022-09-09T11:28:25;22.80;99.90
21662;DHT22;10992;48.170;8.596;2022-09-09T11:31:10;23.10;99.90
21662;DHT22;10992;48.170;8.596;2022-09-09T11:33:53;23.20;99.90
21662;DHT22;10992;48.170;8.596;2022-09-09T11:44:40;23.80;99.90
21662;DHT22;10992;48.170;8.596;2022-09-09T11:47:27;23.20;99.90
21662;DHT22;10992;48.170;8.596;2022-09-09T11:52:47;22.20;99.90
21662;DHT22;10992;48.170;8.596;2022-09-09T11:55:25;21.40;99.90
21662;DHT22;10992;48.170;8.596;2022-09-09T11:58:04;20.90;99.90
21662;DHT22;10992;48.170;8.596;2022-09-09T12:03:06;22.30;99.90
21662;DHT22;10992;48.170;8.596;2022-09-09T12:05:53;23.00;99.90
21662;DHT22;10992;48.170;8.596;2022-09-09T12:08:29;24.10;99.90
21662;DHT22;10992;48.170;8.596;2022-09-09T12:10:58;23.90;99.90
21662;DHT22;10992;48.170;8.596;2022-09-09T12:13:27;23.70;99.90
21662;DHT22;10992;48.170;8.596;2022-09-09T12:15:56;23.20;99.90
21662;DHT22;10992;48.170;8.596;2022-09-09T12:18:36;22.60;99.90
21662;DHT22;10992;48.170;8.596;2022-09-09T12:24:17;22.00;99.90
21662;DHT22;10992;48.170;8.596;2022-09-09T12:27:02;22.40;99.90
21662;DHT22;10992;48.170;8.596;2022-09-09T12:29:37;22.90;99.90
21662;DHT22;10992;48.170;8.596;2022-09-09T12:32:15;23.50;99.90
21662;DHT22;10992;48.170;8.596;2022-09-09T12:37:35;23.30;99.90
21662;DHT22;10992;48.170;8.596;2022-09-09T12:40:20;23.50;99.90
21662;DHT22;10992;48.170;8.596;2022-09-09T12:42:48;23.30;99.90
21662;DHT22;10992;48.170;8.596;2022-09-09T12:45:23;22.70;99.90
21662;DHT22;10992;48.170;8.596;2022-09-09T12:47:58;23.50;99.90
21662;DHT22;10992;48.170;8.596;2022-09-09T12:50:32;24.30;99.90
21662;DHT22;10992;48.170;8.596;2022-09-09T12:53:08;24.30;99.90
21662;DHT22;10992;48.170;8.596;2022-09-09T12:55:38;23.70;99.90
21662;DHT22;10992;48.170;8.596;2022-09-09T12:58:06;23.30;99.90
21662;DHT22;10992;48.170;8.596;2022-09-09T13:00:34;23.50;99.90
21662;DHT22;10992;48.170;8.596;2022-09-09T13:03:14;23.20;99.90
21662;DHT22;10992;48.170;8.596;2022-09-09T13:05:43;23.20;99.90
21662;DHT22;10992;48.170;8.596;2022-09-09T13:08:11;23.20;99.90
21662;DHT22;10992;48.170;8.596;2022-09-09T13:10:43;23.00;99.90
21662;DHT22;10992;48.170;8.596;2022-09-09T13:13:39;23.10;99.90
21662;DHT22;10992;48.170;8.596;2022-09-09T13:16:19;22.70;99.90
21662;DHT22;10992;48.170;8.596;2022-09-09T13:18:47;22.30;99.90
21662;DHT22;10992;48.170;8.596;2022-09-09T13:21:14;21.90;99.90
21662;DHT22;10992;48.170;8.596;2022-09-09T13:23:41;21.90;99.90
21662;DHT22;10992;48.170;8.596;2022-09-09T13:26:26;21.70;99.90
21662;DHT22;10992;48.170;8.596;2022-09-09T13:28:54;21.10;99.90
21662;DHT22;10992;48.170;8.596;2022-09-09T13:31:30;21.20;99.90
21662;DHT22;10992;48.170;8.596;2022-09-09T13:33:58;21.90;99.90
21662;DHT22;10992;48.170;8.596;2022-09-09T13:36:33;22.30;99.90
21662;DHT22;10992;48.170;8.596;2022-09-09T13:39:03;22.80;99.90
21662;DHT22;10992;48.170;8.596;2022-09-09T13:41:34;22.70;99.90
21662;DHT22;10992;48.170;8.596;2022-09-09T13:44:02;22.60;99.90
21662;DHT22;10992;48.170;8.596;2022-09-09T13:46:41;22.80;99.90
21662;DHT22;10992;48.170;8.596;2022-09-09T13:51:42;22.00;99.90
21662;DHT22;10992;48.170;8.596;2022-09-09T13:54:11;21.60;99.90
21662;DHT22;10992;48.170;8.596;2022-09-09T13:56:39;21.30;99.90
21662;DHT22;10992;48.170;8.596;2022-09-09T13:59:19;21.10;99.90
21662;DHT22;10992;48.170;8.596;2022-09-09T14:01:49;20.50;99.90
21662;DHT22;10992;48.170;8.596;2022-09-09T14:04:16;20.00;99.90
21662;DHT22;10992;48.170;8.596;2022-09-09T14:06:43;20.00;99.90
21662;DHT22;10992;48.170;8.596;2022-09-09T14:09:12;19.70;99.90
21662;DHT22;10992;48.170;8.596;2022-09-09T14:11:41;19.40;99.90
21662;DHT22;10992;48.170;8.596;2022-09-09T14:14:08;19.10;99.90
21662;DHT22;10992;48.170;8.596;2022-09-09T14:16:34;19.10;99.90
21662;DHT22;10992;48.170;8.596;2022-09-09T14:19:02;19.10;99.90
21662;DHT22;10992;48.170;8.596;2022-09-09T14:21:29;19.00;99.90
21662;DHT22;10992;48.170;8.596;2022-09-09T14:23:56;19.10;99.90
21662;DHT22;10992;48.170;8.596;2022-09-09T14:26:25;18.90;99.90
21662;DHT22;10992;48.170;8.596;2022-09-09T14:28:52;18.90;99.90
21662;DHT22;10992;48.170;8.596;2022-09-09T14:31:23;18.80;99.90
21662;DHT22;10992;48.170;8.596;2022-09-09T14:33:50;18.70;99.90
21662;DHT22;10992;48.170;8.596;2022-09-09T14:36:18;18.40;99.90
21662;DHT22;10992;48.170;8.596;2022-09-09T14:38:44;18.10;99.90
21662;DHT22;10992;48.170;8.596;2022-09-09T14:41:13;18.00;99.90
21662;DHT22;10992;48.170;8.596;2022-09-09T14:43:44;17.90;99.90
21662;DHT22;10992;48.170;8.596;2022-09-09T14:46:13;17.80;99.90
21662;DHT22;10992;48.170;8.596;2022-09-09T14:48:41;17.80;99.90
21662;DHT22;10992;48.170;8.596;2022-09-09T14:51:13;18.00;99.90
21662;DHT22;10992;48.170;8.596;2022-09-09T14:53:40;18.10;99.90
21662;DHT22;10992;48.170;8.596;2022-09-09T14:56:15;18.30;99.90
21662;DHT22;10992;48.170;8.596;2022-09-09T14:58:43;18.70;99.90
21662;DHT22;10992;48.170;8.596;2022-09-09T15:01:13;19.30;99.90
21662;DHT22;10992;48.170;8.596;2022-09-09T15:03:41;19.40;99.90
21662;DHT22;10992;48.170;8.596;2022-09-09T15:06:11;19.70;99.90
21662;DHT22;10992;48.170;8.596;2022-09-09T15:08:40;20.30;99.90
21662;DHT22;10992;48.170;8.596;2022-09-09T15:11:10;20.50;99.90
21662;DHT22;10992;48.170;8.596;2022-09-09T15:13:38;21.10;99.90
21662;DHT22;10992;48.170;8.596;2022-09-09T15:18:37;21.40;99.90
21662;DHT22;10992;48.170;8.596;2022-09-09T15:21:10;21.00;99.90
21662;DHT22;10992;48.170;8.596;2022-09-09T15:23:38;20.90;99.90
21662;DHT22;10992;48.170;8.596;2022-09-09T15:26:05;20.50;99.90
21662;DHT22;10992;48.170;8.596;2022-09-09T15:28:33;20.40;99.90
21662;DHT22;10992;48.170;8.596;2022-09-09T15:31:11;20.10;99.90
21662;DHT22;10992;48.170;8.596;2022-09-09T15:33:38;19.90;99.90
21662;DHT22;10992;48.170;8.596;2022-09-09T15:38:42;19.50;99.90
21662;DHT22;10992;48.170;8.596;2022-09-09T15:41:11;19.20;99.90
21662;DHT22;10992;48.170;8.596;2022-09-09T15:43:38;19.00;99.90
21662;DHT22;10992;48.170;8.596;2022-09-09T15:49:18;18.80;99.90
21662;DHT22;10992;48.170;8.596;2022-09-09T15:51:47;18.40;99.90
21662;DHT22;10992;48.170;8.596;2022-09-09T15:54:18;18.30;99.90
21662;DHT22;10992;48.170;8.596;2022-09-09T15:56:50;18.20;99.90
21662;DHT22;10992;48.170;8.596;2022-09-09T15:59:18;18.30;99.90
21662;DHT22;10992;48.170;8.596;2022-09-09T16:01:45;18.30;99.90
21662;DHT22;10992;48.170;8.596;2022-09-09T16:04:12;18.10;99.90
21662;DHT22;10992;48.170;8.596;2022-09-09T16:06:39;18.10;99.90
21662;DHT22;10992;48.170;8.596;2022-09-09T16:09:07;18.00;99.90
21662;DHT22;10992;48.170;8.596;2022-09-09T16:11:36;18.00;99.90
21662;DHT22;10992;48.170;8.596;2022-09-09T16:14:03;17.90;99.90
21662;DHT22;10992;48.170;8.596;2022-09-09T16:16:31;17.70;99.90
21662;DHT22;10992;48.170;8.596;2022-09-09T16:19:05;17.60;99.90
21662;DHT22;10992;48.170;8.596;2022-09-09T16:21:38;17.50;99.90
21662;DHT22;10992;48.170;8.596;2022-09-09T16:24:08;17.30;99.90
21662;DHT22;10992;48.170;8.596;2022-09-09T16:26:37;17.20;99.90
21662;DHT22;10992;48.170;8.596;2022-09-09T16:29:04;17.00;99.90
21662;DHT22;10992;48.170;8.596;2022-09-09T16:31:32;16.90;99.90
21662;DHT22;10992;48.170;8.596;2022-09-09T16:33:59;16.90;99.90
21662;DHT22;10992;48.170;8.596;2022-09-09T16:36:28;16.90;99.90
21662;DHT22;10992;48.170;8.596;2022-09-09T16:39:00;16.80;99.90
21662;DHT22;10992;48.170;8.596;2022-09-09T16:41:29;16.80;99.90
21662;DHT22;10992;48.170;8.596;2022-09-09T16:44:01;16.80;99.90
21662;DHT22;10992;48.170;8.596;2022-09-09T16:46:30;16.80;99.90
21662;DHT22;10992;48.170;8.596;2022-09-09T16:48:58;16.70;99.90
21662;DHT22;10992;48.170;8.596;2022-09-09T16:51:30;16.70;99.90
21662;DHT22;10992;48.170;8.596;2022-09-09T16:54:02;16.60;99.90
21662;DHT22;10992;48.170;8.596;2022-09-09T16:56:31;16.60;99.90
21662;DHT22;10992;48.170;8.596;2022-09-09T16:59:02;16.50;99.90
21662;DHT22;10992;48.170;8.596;2022-09-09T17:01:31;16.50;99.90
21662;DHT22;10992;48.170;8.596;2022-09-09T17:04:02;16.40;99.90
21662;DHT22;10992;48.170;8.596;2022-09-09T17:06:30;16.30;99.90
21662;DHT22;10992;48.170;8.596;2022-09-09T17:08:59;16.30;99.90
21662;DHT22;10992;48.170;8.596;2022-09-09T17:11:27;16.30;99.90
21662;DHT22;10992;48.170;8.596;2022-09-09T17:13:56;16.30;99.90
21662;DHT22;10992;48.170;8.596;2022-09-09T17:16:24;16.20;99.90
21662;DHT22;10992;48.170;8.596;2022-09-09T17:18:54;16.20;99.90
21662;DHT22;10992;48.170;8.596;2022-09-09T17:21:23;16.10;99.90
21662;DHT22;10992;48.170;8.596;2022-09-09T17:23:51;16.10;99.90
21662;DHT22;10992;48.170;8.596;2022-09-09T17:26:20;15.90;99.90
21662;DHT22;10992;48.170;8.596;2022-09-09T17:28:47;15.70;99.90
21662;DHT22;10992;48.170;8.596;2022-09-09T17:31:17;15.60;99.90
21662;DHT22;10992;48.170;8.596;2022-09-09T17:33:48;15.40;99.90
21662;DHT22;10992;48.170;8.596;2022-09-09T17:36:17;15.20;99.90
21662;DHT22;10992;48.170;8.596;2022-09-09T17:38:45;15.10;99.90
21662;DHT22;10992;48.170;8.596;2022-09-09T17:43:40;14.90;99.90
21662;DHT22;10992;48.170;8.596;2022-09-09T17:46:11;14.80;99.90
21662;DHT22;10992;48.170;8.596;2022-09-09T17:48:39;14.70;99.90
21662;DHT22;10992;48.170;8.596;2022-09-09T17:51:08;14.60;99.90
21662;DHT22;10992;48.170;8.596;2022-09-09T17:53:40;14.50;99.90
21662;DHT22;10992;48.170;8.596;2022-09-09T17:56:09;14.50;99.90